Terminal Aerodrome Forecast
Issued by NWS

Home | Current Version | Previous Version | Text Only | Print | Product List | Glossary On
Versions: 1 2 3 4 5 6 7 8 9 10 11 12 13 14 15 16
000
FTUS41 KPBZ 222300
TAFBVI
TAF
KBVI 222322Z 2300/2324 34010KT P6SM OVC018
     FM230200 33007KT P6SM OVC020
     FM230800 32008KT P6SM BKN025
     FM231700 32007KT P6SM SCT035
      AMD NOT SKED 2301/2311=

USA.gov is the U.S. government's official web portal to all federal, state and local government web resources and services.